METAR AND TAF INFORMATION
METAR FOR KSEA
ADDS - METARS form results

(1101 UTC 21 November 2019)
Data provider http://aviationweather.gov/metar/data/
 
METAR text: KSEA 211053Z 00000KT 1/4SM R16L/1000V1200FT FG VV001 02/01 A3002 RMK AO2 SLP175 T00220011
Conditions at: KSEA (SEATTLE/METRO , WA, US) observed 1053 UTC 21 November 2019
Temperature: 2.2°C (36°F)
Dewpoint: 1.1°C (34°F) [RH = 92%]
Pressure (altimeter): 30.02 inches Hg (1016.7 mb)
[Sea-level pressure: 1017.5 mb]
Winds: calm
Visibility: 0.25 miles (0.40 km)
Ceiling: indefinite ceiling with vertical visibility of 100 feet AGL
Clouds: obscured sky
Weather: FG  (fog)

METAR text: KSEA 211044Z 07004KT 1/4SM R16L/1000V3000FT FG VV001 03/02 A3002 RMK AO2 T00280017
Conditions at: KSEA (SEATTLE/METRO , WA, US) observed 1044 UTC 21 November 2019
Temperature: 2.8°C (37°F)
Dewpoint: 1.7°C (35°F) [RH = 92%]
Pressure (altimeter): 30.02 inches Hg (1016.7 mb)
Winds: from the ENE (70 degrees) at 5 MPH (4 knots; 2.1 m/s)
Visibility: 0.25 miles (0.40 km)
Ceiling: indefinite ceiling with vertical visibility of 100 feet AGL
Clouds: obscured sky
Weather: FG  (fog)

METAR text: KSEA 211035Z 00000KT 1/4SM R16L/1200V2000FT FG VV001 03/02 A3003 RMK AO2 T00280017
Conditions at: KSEA (SEATTLE/METRO , WA, US) observed 1035 UTC 21 November 2019
Temperature: 2.8°C (37°F)
Dewpoint: 1.7°C (35°F) [RH = 92%]
Pressure (altimeter): 30.03 inches Hg (1017.0 mb)
Winds: calm
Visibility: 0.25 miles (0.40 km)
Ceiling: indefinite ceiling with vertical visibility of 100 feet AGL
Clouds: obscured sky
Weather: FG  (fog)

METAR text: KSEA 211019Z 09003KT 1/4SM R16L/1800VP6000FT FG VV001 03/02 A3003 RMK AO2 T00330022
Conditions at: KSEA (SEATTLE/METRO , WA, US) observed 1019 UTC 21 November 2019
Temperature: 3.3°C (38°F)
Dewpoint: 2.2°C (36°F) [RH = 92%]
Pressure (altimeter): 30.03 inches Hg (1017.0 mb)
Winds: from the E (90 degrees) at 3 MPH (3 knots; 1.5 m/s)
Visibility: 0.25 miles (0.40 km)
Ceiling: indefinite ceiling with vertical visibility of 100 feet AGL
Clouds: obscured sky
Weather: FG  (fog)

METAR text: KSEA 211005Z 08003KT 1/4SM R16L/1400V1800FT FG VV001 03/02 A3003 RMK AO2 T00330022
Conditions at: KSEA (SEATTLE/METRO , WA, US) observed 1005 UTC 21 November 2019
Temperature: 3.3°C (38°F)
Dewpoint: 2.2°C (36°F) [RH = 92%]
Pressure (altimeter): 30.03 inches Hg (1017.0 mb)
Winds: from the E (80 degrees) at 3 MPH (3 knots; 1.5 m/s)
Visibility: 0.25 miles (0.40 km)
Ceiling: indefinite ceiling with vertical visibility of 100 feet AGL
Clouds: obscured sky
Weather: FG  (fog)

Forecast for: KSEA (SEATTLE/METRO , WA, US)
Text: KSEA 210930Z 2110/2212 VRB04KT 2SM BR BKN002
Forecast period: 1000 to 1600 UTC 21 November 2019
Forecast type: FROM: standard forecast or significant change
Winds: variable direction winds at 5 MPH (4 knots; 2.1 m/s)
Visibility: 2.00 miles (3.22 km)
Ceiling: 200 feet AGL
Clouds: broken clouds at 200 feet AGL
Weather: BR  (mist)
Text: TEMPO 2112/2116 1/4SM FG VV001
Forecast period: 1200 to 1600 UTC 21 November 2019
Forecast type: TEMPORARY: The following changes expected for less than half the time period
Visibility: 0.25 miles (0.40 km)
Ceiling: indefinite ceiling with vertical visibility of 100 feet AGL
Clouds: obscured sky
Weather: FG  (fog)
Text: FM211600 06003KT P6SM SKC
Forecast period: 1600 to 1900 UTC 21 November 2019
Forecast type: FROM: standard forecast or significant change
Winds: from the ENE (60 degrees) at 3 MPH (3 knots; 1.5 m/s)
Visibility: 6 or more miles 10+ km)
Clouds: clear skies
Weather: no significant weather forecast for this period
Text: FM211900 01004KT P6SM SKC
Forecast period: 1900 to 2100 UTC 21 November 2019
Forecast type: FROM: standard forecast or significant change
Winds: from the N (10 degrees) at 5 MPH (4 knots; 2.1 m/s)
Visibility: 6 or more miles 10+ km)
Clouds: clear skies
Weather: no significant weather forecast for this period
Text: FM212100 34004KT P6SM SKC
Forecast period: 2100 UTC 21 November 2019 to 1200 UTC 22 November 2019
Forecast type: FROM: standard forecast or significant change
Winds: from the NNW (340 degrees) at 5 MPH (4 knots; 2.1 m/s)
Visibility: 6 or more miles 10+ km)
Clouds: clear skies
Weather: no significant weather forecast for this period

 AIRPORT MAP

 RUNWAY INFORMATION
Runway 16C Runway length 9426 ft Runway width 150 ft
Runway elevation 430 ft Runway displaced threshold 0 ft Runway heading 180
Runway 34C Runway length 9426 ft Runway width 150 ft
Runway elevation 363 ft Runway displaced threshold 0 ft Runway heading 0
Runway 16L Runway length 11900 ft Runway width 150 ft
Runway elevation 432 ft Runway displaced threshold 0 ft Runway heading 180
Runway 34R Runway length 11900 ft Runway width 150 ft
Runway elevation 347 ft Runway displaced threshold 0 ft Runway heading 360
Runway 16R Runway length 9426 ft Runway width 150 ft
Runway elevation 430 ft Runway displaced threshold 0 ft Runway heading 180
Runway 34L Runway length 9426 ft Runway width 150 ft
Runway elevation 363 ft Runway displaced threshold 0 ft Runway heading 360

 AIRPORT FREQUENCIES
Type A/D Name APP/DEP Frequency 119.2 MHZ
Type ATIS Name ATIS Frequency 118 MHZ
Type CLD Name CLNC DEL Frequency 128 MHZ
Type GND Name GND Frequency 121.7 MHZ
Type TWR Name TWR Frequency 119.9 MHZ
Type UNIC Name UNICOM Frequency 122.95 MHZ

 AIRPORT NEAR NAVIGATION AIDS
Type NDB Name Dondo Frequency 224 KHZ
Type VORTAC Name Seattle Frequency 116800 KHZ
Type NDB Name Parkk Frequency 281 KHZ